DAL8976 TTPP-SVMI
Flight info
| Callsign | DAL8976 |
|---|---|
| Flight time | 1h 3m |
| Altitude | 18000 |
| Route | POS A552 MEGIR/N0463F240 A552 CBC W18 KORLI DCT DARPA DCT REKON DCT MARES DCT ROMEX DCT ORITO DCT MIQ |
| Aircraft | A359/H-SDE2E3GHIJ3J4J5LM1ORWXY/LB1D1 |
Departure
| Time | 2026-05-04 01:32 |
|---|---|
| Airport | Piarco International Airport (TTPP) |
Arrival
| Time | 2026-05-04 02:35 |
|---|---|
| Airport | Maiquetía Simón Bolívar International Airport (SVMI) |
| Time | Latitude | Longitude | Altitude | Speed | Heading |
|---|---|---|---|---|---|
| 2026-05-04 01:21 | 10.59962 | -61.33903 | 50 ft | 0 kts | 14° |
| 2026-05-04 01:24 | 10.59957 | -61.33904 | 51 ft | 2 kts | 11° |
| 2026-05-04 01:24 | 10.59939 | -61.33907 | 45 ft | 3 kts | 10° |
| 2026-05-04 01:25 | 10.59919 | -61.33910 | 45 ft | 3 kts | 8° |
| 2026-05-04 01:25 | 10.59899 | -61.33913 | 46 ft | 3 kts | 6° |
| 2026-05-04 01:25 | 10.59879 | -61.33915 | 45 ft | 3 kts | 3° |
| 2026-05-04 01:25 | 10.59858 | -61.33915 | 44 ft | 3 kts | 359° |
| 2026-05-04 01:26 | 10.59838 | -61.33914 | 46 ft | 3 kts | 352° |
| 2026-05-04 01:26 | 10.59830 | -61.33913 | 46 ft | 0 kts | 350° |
| 2026-05-04 01:28 | 10.59852 | -61.33942 | 47 ft | 9 kts | 279° |
| 2026-05-04 01:28 | 10.59843 | -61.34019 | 48 ft | 13 kts | 262° |
| 2026-05-04 01:29 | 10.59831 | -61.34121 | 45 ft | 16 kts | 255° |
| 2026-05-04 01:29 | 10.59740 | -61.34186 | 43 ft | 17 kts | 215° |
| 2026-05-04 01:29 | 10.59706 | -61.34307 | 47 ft | 20 kts | 269° |
| 2026-05-04 01:29 | 10.59702 | -61.34460 | 46 ft | 23 kts | 261° |
| 2026-05-04 01:30 | 10.59633 | -61.34591 | 44 ft | 22 kts | 265° |
| 2026-05-04 01:30 | 10.59629 | -61.34758 | 43 ft | 25 kts | 270° |
| 2026-05-04 01:30 | 10.59630 | -61.34939 | 41 ft | 21 kts | 271° |
| 2026-05-04 01:30 | 10.59625 | -61.35062 | 40 ft | 11 kts | 261° |
| 2026-05-04 01:31 | 10.59571 | -61.35124 | 39 ft | 13 kts | 212° |
| 2026-05-04 01:31 | 10.59534 | -61.35099 | 39 ft | 7 kts | 91° |
| 2026-05-04 01:31 | 10.59534 | -61.34967 | 41 ft | 56 kts | 90° |
| 2026-05-04 01:31 | 10.59538 | -61.34209 | 48 ft | 155 kts | 90° |
| 2026-05-04 01:32 | 10.59551 | -61.32934 | 641 ft | 197 kts | 89° |
| 2026-05-04 01:32 | 10.60015 | -61.31564 | 1675 ft | 220 kts | 63° |
| 2026-05-04 01:32 | 10.60265 | -61.30034 | 2517 ft | 224 kts | 100° |
| 2026-05-04 01:32 | 10.59465 | -61.28711 | 3613 ft | 225 kts | 138° |
| 2026-05-04 01:33 | 10.57993 | -61.28165 | 4461 ft | 234 kts | 176° |
| 2026-05-04 01:33 | 10.56438 | -61.28645 | 5297 ft | 239 kts | 211° |
| 2026-05-04 01:33 | 10.55226 | -61.29812 | 6162 ft | 243 kts | 232° |
| 2026-05-04 01:33 | 10.54301 | -61.31262 | 6977 ft | 247 kts | 236° |
| 2026-05-04 01:34 | 10.53383 | -61.32770 | 7702 ft | 255 kts | 236° |
| 2026-05-04 01:34 | 10.52445 | -61.34329 | 8443 ft | 262 kts | 236° |
| 2026-05-04 01:34 | 10.51463 | -61.35912 | 9229 ft | 267 kts | 231° |
| 2026-05-04 01:34 | 10.50128 | -61.37218 | 10032 ft | 268 kts | 214° |
| 2026-05-04 01:35 | 10.48706 | -61.38481 | 10752 ft | 275 kts | 223° |
| 2026-05-04 01:35 | 10.47567 | -61.40073 | 11501 ft | 283 kts | 242° |
| 2026-05-04 01:35 | 10.47045 | -61.41935 | 12259 ft | 287 kts | 263° |
| 2026-05-04 01:35 | 10.46964 | -61.43945 | 13027 ft | 291 kts | 272° |
| 2026-05-04 01:36 | 10.47102 | -61.45977 | 13789 ft | 294 kts | 276° |
| 2026-05-04 01:36 | 10.47357 | -61.48098 | 14321 ft | 307 kts | 278° |
| 2026-05-04 01:36 | 10.47659 | -61.50291 | 14613 ft | 327 kts | 278° |
| 2026-05-04 01:36 | 10.47977 | -61.52656 | 14897 ft | 347 kts | 278° |
| 2026-05-04 01:37 | 10.48286 | -61.55141 | 15178 ft | 365 kts | 277° |
| 2026-05-04 01:37 | 10.48589 | -61.57778 | 15450 ft | 382 kts | 277° |
| 2026-05-04 01:37 | 10.48884 | -61.60510 | 15712 ft | 397 kts | 277° |
| 2026-05-04 01:37 | 10.49180 | -61.63342 | 16071 ft | 407 kts | 276° |
| 2026-05-04 01:38 | 10.49476 | -61.66218 | 16573 ft | 412 kts | 276° |
| 2026-05-04 01:38 | 10.49776 | -61.69136 | 17105 ft | 416 kts | 276° |
| 2026-05-04 01:38 | 10.50079 | -61.72068 | 17664 ft | 419 kts | 276° |
| 2026-05-04 01:38 | 10.50386 | -61.75027 | 18209 ft | 423 kts | 276° |
| 2026-05-04 01:39 | 10.50696 | -61.78007 | 18727 ft | 425 kts | 277° |
| 2026-05-04 01:39 | 10.51008 | -61.81005 | 19284 ft | 425 kts | 277° |
| 2026-05-04 01:39 | 10.51319 | -61.83994 | 19846 ft | 426 kts | 277° |
| 2026-05-04 01:39 | 10.51632 | -61.86995 | 20380 ft | 428 kts | 277° |
| 2026-05-04 01:40 | 10.51942 | -61.89977 | 20841 ft | 432 kts | 277° |
| 2026-05-04 01:40 | 10.52256 | -61.92994 | 21469 ft | 431 kts | 277° |
| 2026-05-04 01:40 | 10.52573 | -61.96038 | 22099 ft | 431 kts | 277° |
| 2026-05-04 01:40 | 10.52886 | -61.99058 | 22759 ft | 430 kts | 276° |
| 2026-05-04 01:41 | 10.53200 | -62.02084 | 23366 ft | 430 kts | 277° |
| 2026-05-04 01:41 | 10.53512 | -62.05105 | 23800 ft | 432 kts | 277° |
| 2026-05-04 01:41 | 10.53828 | -62.08158 | 23973 ft | 435 kts | 277° |
| 2026-05-04 01:41 | 10.54149 | -62.11254 | 24001 ft | 447 kts | 277° |
| 2026-05-04 01:42 | 10.54478 | -62.14427 | 24003 ft | 454 kts | 276° |
| 2026-05-04 01:42 | 10.54808 | -62.17625 | 24002 ft | 455 kts | 277° |
| 2026-05-04 01:42 | 10.55139 | -62.20834 | 24004 ft | 455 kts | 277° |
| 2026-05-04 01:42 | 10.55467 | -62.24030 | 24006 ft | 454 kts | 277° |
| 2026-05-04 01:43 | 10.55795 | -62.27220 | 24004 ft | 454 kts | 277° |
| 2026-05-04 01:43 | 10.56124 | -62.30411 | 24004 ft | 454 kts | 276° |
| 2026-05-04 01:43 | 10.56453 | -62.33614 | 24004 ft | 455 kts | 277° |
| 2026-05-04 01:43 | 10.56781 | -62.36812 | 24005 ft | 455 kts | 277° |
| 2026-05-04 01:44 | 10.57102 | -62.39950 | 24003 ft | 453 kts | 276° |
| 2026-05-04 01:44 | 10.57430 | -62.43150 | 24005 ft | 454 kts | 277° |
| 2026-05-04 01:44 | 10.57756 | -62.46339 | 24004 ft | 454 kts | 276° |
| 2026-05-04 01:44 | 10.58083 | -62.49539 | 24004 ft | 455 kts | 277° |
| 2026-05-04 01:45 | 10.58409 | -62.52728 | 24005 ft | 455 kts | 277° |
| 2026-05-04 01:45 | 10.58734 | -62.55927 | 24004 ft | 454 kts | 277° |
| 2026-05-04 01:45 | 10.59385 | -62.62306 | 24004 ft | 454 kts | 276° |
| 2026-05-04 01:46 | 10.59711 | -62.65508 | 24002 ft | 455 kts | 277° |
| 2026-05-04 01:46 | 10.60037 | -62.68718 | 24001 ft | 455 kts | 277° |
| 2026-05-04 01:46 | 10.60360 | -62.71911 | 24001 ft | 454 kts | 277° |
| 2026-05-04 01:46 | 10.60680 | -62.75068 | 24002 ft | 454 kts | 277° |
| 2026-05-04 01:47 | 10.61007 | -62.78299 | 24001 ft | 454 kts | 276° |
| 2026-05-04 01:47 | 10.61328 | -62.81464 | 24001 ft | 455 kts | 277° |
| 2026-05-04 01:47 | 10.61652 | -62.84666 | 24001 ft | 456 kts | 276° |
| 2026-05-04 01:47 | 10.61976 | -62.87880 | 24002 ft | 457 kts | 276° |
| 2026-05-04 01:48 | 10.62300 | -62.91087 | 24000 ft | 458 kts | 276° |
| 2026-05-04 01:48 | 10.62626 | -62.94323 | 24001 ft | 458 kts | 276° |
| 2026-05-04 01:48 | 10.62949 | -62.97533 | 24001 ft | 458 kts | 276° |
| 2026-05-04 01:48 | 10.63274 | -63.00763 | 24001 ft | 458 kts | 276° |
| 2026-05-04 01:49 | 10.63597 | -63.03979 | 24004 ft | 458 kts | 276° |
| 2026-05-04 01:49 | 10.63913 | -63.07136 | 24004 ft | 458 kts | 276° |
| 2026-05-04 01:49 | 10.64241 | -63.10421 | 24004 ft | 458 kts | 276° |
| 2026-05-04 01:49 | 10.64558 | -63.13591 | 24001 ft | 458 kts | 276° |
| 2026-05-04 01:50 | 10.64885 | -63.16860 | 24005 ft | 458 kts | 276° |
| 2026-05-04 01:50 | 10.65207 | -63.20076 | 24004 ft | 458 kts | 276° |
| 2026-05-04 01:50 | 10.65510 | -63.23298 | 24002 ft | 458 kts | 274° |
| 2026-05-04 01:50 | 10.65434 | -63.26530 | 24012 ft | 459 kts | 264° |
| 2026-05-04 01:51 | 10.64940 | -63.29733 | 24012 ft | 459 kts | 260° |
| 2026-05-04 01:51 | 10.64318 | -63.32875 | 24012 ft | 459 kts | 258° |
| 2026-05-04 01:51 | 10.63616 | -63.36045 | 24012 ft | 459 kts | 257° |
| 2026-05-04 01:51 | 10.62884 | -63.39200 | 24012 ft | 459 kts | 257° |
| 2026-05-04 01:52 | 10.62142 | -63.42364 | 24011 ft | 459 kts | 257° |
| 2026-05-04 01:52 | 10.61406 | -63.45525 | 24012 ft | 459 kts | 257° |
| 2026-05-04 01:52 | 10.60679 | -63.48686 | 24013 ft | 459 kts | 257° |
| 2026-05-04 01:52 | 10.59959 | -63.51843 | 24009 ft | 459 kts | 258° |
| 2026-05-04 01:53 | 10.59242 | -63.55009 | 24012 ft | 459 kts | 258° |
| 2026-05-04 01:53 | 10.58531 | -63.58163 | 24012 ft | 459 kts | 258° |
| 2026-05-04 01:53 | 10.57814 | -63.61340 | 24012 ft | 459 kts | 258° |
| 2026-05-04 01:53 | 10.57101 | -63.64505 | 24007 ft | 459 kts | 258° |
| 2026-05-04 01:54 | 10.56387 | -63.67667 | 24006 ft | 459 kts | 258° |
| 2026-05-04 01:54 | 10.55672 | -63.70831 | 24023 ft | 459 kts | 258° |
| 2026-05-04 01:54 | 10.54939 | -63.73990 | 24026 ft | 459 kts | 257° |
| 2026-05-04 01:54 | 10.54151 | -63.77083 | 24017 ft | 458 kts | 256° |
| 2026-05-04 01:55 | 10.53320 | -63.80206 | 24018 ft | 457 kts | 256° |
| 2026-05-04 01:55 | 10.52482 | -63.83319 | 24017 ft | 456 kts | 256° |
| 2026-05-04 01:55 | 10.51661 | -63.86386 | 24018 ft | 456 kts | 256° |
| 2026-05-04 01:55 | 10.50823 | -63.89548 | 24015 ft | 456 kts | 256° |
| 2026-05-04 01:56 | 10.50005 | -63.92665 | 24014 ft | 457 kts | 256° |
| 2026-05-04 01:56 | 10.49190 | -63.95786 | 24015 ft | 457 kts | 256° |
| 2026-05-04 01:56 | 10.48373 | -63.98921 | 24007 ft | 458 kts | 256° |
| 2026-05-04 01:56 | 10.47560 | -64.02044 | 24007 ft | 458 kts | 256° |
| 2026-05-04 01:57 | 10.46755 | -64.05133 | 24006 ft | 458 kts | 256° |
| 2026-05-04 01:57 | 10.45942 | -64.08256 | 24023 ft | 457 kts | 256° |
| 2026-05-04 01:57 | 10.45149 | -64.11380 | 24011 ft | 456 kts | 258° |
| 2026-05-04 01:57 | 10.44733 | -64.14569 | 24012 ft | 455 kts | 269° |
| 2026-05-04 01:58 | 10.44735 | -64.17778 | 24012 ft | 454 kts | 272° |
| 2026-05-04 01:58 | 10.44873 | -64.20990 | 24012 ft | 454 kts | 274° |
| 2026-05-04 01:58 | 10.45082 | -64.24189 | 24001 ft | 454 kts | 275° |
| 2026-05-04 01:58 | 10.45322 | -64.27395 | 24001 ft | 454 kts | 275° |
| 2026-05-04 01:59 | 10.45485 | -64.29517 | 24001 ft | 454 kts | 275° |
| 2026-05-04 01:59 | 10.45805 | -64.33761 | 24001 ft | 454 kts | 275° |
| 2026-05-04 01:59 | 10.46036 | -64.36964 | 23993 ft | 454 kts | 275° |
| 2026-05-04 01:59 | 10.46260 | -64.40161 | 23992 ft | 452 kts | 275° |
| 2026-05-04 02:00 | 10.46479 | -64.43348 | 23995 ft | 452 kts | 275° |
| 2026-05-04 02:00 | 10.46695 | -64.46538 | 23996 ft | 452 kts | 275° |
| 2026-05-04 02:00 | 10.46837 | -64.48644 | 23990 ft | 452 kts | 275° |
| 2026-05-04 02:00 | 10.47051 | -64.51834 | 23991 ft | 452 kts | 275° |
| 2026-05-04 02:01 | 10.47264 | -64.55016 | 23986 ft | 451 kts | 275° |
| 2026-05-04 02:01 | 10.47477 | -64.58198 | 23986 ft | 451 kts | 275° |
| 2026-05-04 02:01 | 10.47696 | -64.61382 | 23980 ft | 452 kts | 275° |
| 2026-05-04 02:01 | 10.47920 | -64.64571 | 23979 ft | 452 kts | 275° |
| 2026-05-04 02:02 | 10.48144 | -64.67760 | 23982 ft | 452 kts | 275° |
| 2026-05-04 02:02 | 10.48368 | -64.70944 | 23979 ft | 451 kts | 275° |
| 2026-05-04 02:02 | 10.48590 | -64.74124 | 23979 ft | 451 kts | 275° |
| 2026-05-04 02:02 | 10.48811 | -64.77309 | 23980 ft | 452 kts | 275° |
| 2026-05-04 02:03 | 10.49033 | -64.80508 | 23979 ft | 452 kts | 275° |
| 2026-05-04 02:03 | 10.49252 | -64.83697 | 23979 ft | 452 kts | 275° |
| 2026-05-04 02:03 | 10.49471 | -64.86881 | 23980 ft | 451 kts | 275° |
| 2026-05-04 02:03 | 10.49688 | -64.90027 | 23979 ft | 451 kts | 275° |
| 2026-05-04 02:04 | 10.49907 | -64.93218 | 23980 ft | 452 kts | 275° |
| 2026-05-04 02:04 | 10.50125 | -64.96407 | 23979 ft | 452 kts | 275° |
| 2026-05-04 02:04 | 10.50343 | -64.99590 | 23979 ft | 451 kts | 275° |
| 2026-05-04 02:04 | 10.50558 | -65.02767 | 23979 ft | 450 kts | 275° |
| 2026-05-04 02:05 | 10.50762 | -65.05941 | 23982 ft | 450 kts | 274° |
| 2026-05-04 02:05 | 10.50963 | -65.09122 | 23984 ft | 452 kts | 275° |
| 2026-05-04 02:05 | 10.51162 | -65.12308 | 23984 ft | 451 kts | 274° |
| 2026-05-04 02:05 | 10.51361 | -65.15476 | 23984 ft | 449 kts | 275° |
| 2026-05-04 02:06 | 10.51562 | -65.18649 | 23987 ft | 449 kts | 275° |
| 2026-05-04 02:06 | 10.51763 | -65.21807 | 23986 ft | 450 kts | 275° |
| 2026-05-04 02:06 | 10.51965 | -65.24964 | 23989 ft | 452 kts | 275° |
| 2026-05-04 02:06 | 10.52173 | -65.28144 | 23987 ft | 451 kts | 275° |
| 2026-05-04 02:07 | 10.52389 | -65.31316 | 23982 ft | 449 kts | 275° |
| 2026-05-04 02:07 | 10.52608 | -65.34486 | 23986 ft | 451 kts | 275° |
| 2026-05-04 02:07 | 10.52828 | -65.37668 | 23993 ft | 452 kts | 275° |
| 2026-05-04 02:07 | 10.53046 | -65.40847 | 23993 ft | 453 kts | 275° |
| 2026-05-04 02:08 | 10.53266 | -65.44054 | 23993 ft | 452 kts | 275° |
| 2026-05-04 02:08 | 10.53481 | -65.47223 | 23993 ft | 452 kts | 275° |
| 2026-05-04 02:08 | 10.53698 | -65.50432 | 23996 ft | 452 kts | 275° |
| 2026-05-04 02:08 | 10.53914 | -65.53613 | 23996 ft | 453 kts | 275° |
| 2026-05-04 02:09 | 10.54130 | -65.56823 | 23997 ft | 453 kts | 275° |
| 2026-05-04 02:09 | 10.54344 | -65.59994 | 23996 ft | 452 kts | 275° |
| 2026-05-04 02:09 | 10.54560 | -65.63202 | 23999 ft | 452 kts | 275° |
| 2026-05-04 02:09 | 10.54772 | -65.66355 | 23999 ft | 453 kts | 275° |
| 2026-05-04 02:10 | 10.54987 | -65.69555 | 23998 ft | 454 kts | 275° |
| 2026-05-04 02:10 | 10.55201 | -65.72748 | 23998 ft | 454 kts | 275° |
| 2026-05-04 02:10 | 10.55415 | -65.75954 | 24001 ft | 454 kts | 275° |
| 2026-05-04 02:10 | 10.55629 | -65.79156 | 24001 ft | 454 kts | 275° |
| 2026-05-04 02:11 | 10.55842 | -65.82356 | 23999 ft | 454 kts | 274° |
| 2026-05-04 02:11 | 10.56056 | -65.85555 | 24001 ft | 454 kts | 274° |
| 2026-05-04 02:11 | 10.56269 | -65.88763 | 24004 ft | 454 kts | 274° |
| 2026-05-04 02:11 | 10.56482 | -65.91967 | 24004 ft | 454 kts | 274° |
| 2026-05-04 02:12 | 10.56694 | -65.95170 | 24004 ft | 454 kts | 275° |
| 2026-05-04 02:12 | 10.56906 | -65.98376 | 24004 ft | 454 kts | 275° |
| 2026-05-04 02:12 | 10.57193 | -66.01526 | 24005 ft | 454 kts | 279° |
| 2026-05-04 02:12 | 10.57964 | -66.04623 | 24010 ft | 452 kts | 290° |
| 2026-05-04 02:13 | 10.59345 | -66.07487 | 24005 ft | 451 kts | 302° |
| 2026-05-04 02:13 | 10.61073 | -66.10149 | 24006 ft | 451 kts | 305° |
| 2026-05-04 02:13 | 10.62928 | -66.12729 | 24018 ft | 452 kts | 307° |
| 2026-05-04 02:13 | 10.64838 | -66.15262 | 24015 ft | 452 kts | 308° |
| 2026-05-04 02:14 | 10.66756 | -66.17766 | 24017 ft | 452 kts | 308° |
| 2026-05-04 02:14 | 10.68697 | -66.20304 | 24015 ft | 452 kts | 308° |
| 2026-05-04 02:14 | 10.70616 | -66.22834 | 24015 ft | 452 kts | 307° |
| 2026-05-04 02:14 | 10.72528 | -66.25374 | 24016 ft | 452 kts | 307° |
| 2026-05-04 02:15 | 10.74422 | -66.27906 | 24017 ft | 451 kts | 307° |
| 2026-05-04 02:15 | 10.76323 | -66.30458 | 24018 ft | 450 kts | 307° |
| 2026-05-04 02:15 | 10.78189 | -66.32966 | 24018 ft | 449 kts | 307° |
| 2026-05-04 02:15 | 10.80068 | -66.35494 | 24010 ft | 450 kts | 307° |
| 2026-05-04 02:16 | 10.82006 | -66.38011 | 24009 ft | 450 kts | 308° |
| 2026-05-04 02:16 | 10.83979 | -66.40484 | 24009 ft | 449 kts | 309° |
| 2026-05-04 02:16 | 10.85958 | -66.42933 | 24010 ft | 448 kts | 309° |
| 2026-05-04 02:16 | 10.87944 | -66.45391 | 24009 ft | 449 kts | 309° |
| 2026-05-04 02:17 | 10.89923 | -66.47852 | 24008 ft | 449 kts | 309° |
| 2026-05-04 02:17 | 10.91700 | -66.50469 | 24009 ft | 449 kts | 300° |
| 2026-05-04 02:17 | 10.92960 | -66.53367 | 24010 ft | 449 kts | 289° |
| 2026-05-04 02:17 | 10.93816 | -66.56429 | 24010 ft | 450 kts | 283° |
| 2026-05-04 02:18 | 10.94235 | -66.59583 | 23999 ft | 451 kts | 274° |
| 2026-05-04 02:18 | 10.94033 | -66.62764 | 24011 ft | 452 kts | 261° |
| 2026-05-04 02:18 | 10.93132 | -66.65831 | 24011 ft | 455 kts | 248° |
| 2026-05-04 02:18 | 10.91485 | -66.68544 | 23970 ft | 457 kts | 232° |
| 2026-05-04 02:19 | 10.89214 | -66.70770 | 23444 ft | 453 kts | 220° |
| 2026-05-04 02:19 | 10.86672 | -66.72628 | 22175 ft | 446 kts | 215° |
| 2026-05-04 02:19 | 10.84366 | -66.74679 | 21096 ft | 435 kts | 229° |
| 2026-05-04 02:19 | 10.82783 | -66.77239 | 20071 ft | 425 kts | 247° |
| 2026-05-04 02:20 | 10.82098 | -66.80115 | 19197 ft | 415 kts | 266° |
| 2026-05-04 02:20 | 10.82358 | -66.83001 | 18248 ft | 407 kts | 286° |
| 2026-05-04 02:20 | 10.83520 | -66.85565 | 17505 ft | 391 kts | 304° |
| 2026-05-04 02:20 | 10.85058 | -66.87743 | 17081 ft | 369 kts | 310° |
| 2026-05-04 02:21 | 10.86625 | -66.89750 | 16475 ft | 356 kts | 311° |
| 2026-05-04 02:21 | 10.87912 | -66.91853 | 15742 ft | 355 kts | 295° |
| 2026-05-04 02:21 | 10.88559 | -66.94286 | 15023 ft | 350 kts | 279° |
| 2026-05-04 02:21 | 10.88766 | -66.96701 | 14420 ft | 343 kts | 271° |
| 2026-05-04 02:22 | 10.88764 | -66.99092 | 13859 ft | 334 kts | 268° |
| 2026-05-04 02:22 | 10.88665 | -67.01439 | 13144 ft | 329 kts | 266° |
| 2026-05-04 02:22 | 10.88534 | -67.03739 | 12462 ft | 323 kts | 266° |
| 2026-05-04 02:22 | 10.88397 | -67.05995 | 11888 ft | 314 kts | 265° |
| 2026-05-04 02:23 | 10.87962 | -67.08140 | 11301 ft | 307 kts | 252° |
| 2026-05-04 02:23 | 10.87262 | -67.10180 | 10674 ft | 303 kts | 246° |
| 2026-05-04 02:23 | 10.86411 | -67.12107 | 10183 ft | 294 kts | 242° |
| 2026-05-04 02:23 | 10.85448 | -67.13908 | 9690 ft | 285 kts | 238° |
| 2026-05-04 02:24 | 10.84383 | -67.15601 | 9015 ft | 283 kts | 233° |
| 2026-05-04 02:24 | 10.83234 | -67.17170 | 8444 ft | 278 kts | 228° |
| 2026-05-04 02:24 | 10.81980 | -67.18654 | 7977 ft | 268 kts | 224° |
| 2026-05-04 02:24 | 10.80705 | -67.19979 | 7453 ft | 262 kts | 221° |
| 2026-05-04 02:25 | 10.79358 | -67.21207 | 6903 ft | 257 kts | 217° |
| 2026-05-04 02:25 | 10.77949 | -67.22289 | 6556 ft | 251 kts | 213° |
| 2026-05-04 02:25 | 10.76517 | -67.23257 | 6351 ft | 243 kts | 210° |
| 2026-05-04 02:25 | 10.75070 | -67.24132 | 6010 ft | 242 kts | 207° |
| 2026-05-04 02:26 | 10.73586 | -67.24922 | 5668 ft | 241 kts | 204° |
| 2026-05-04 02:26 | 10.72057 | -67.25628 | 5398 ft | 237 kts | 201° |
| 2026-05-04 02:26 | 10.70537 | -67.26228 | 5252 ft | 233 kts | 198° |
| 2026-05-04 02:26 | 10.68999 | -67.26736 | 5158 ft | 229 kts | 194° |
| 2026-05-04 02:27 | 10.67503 | -67.27140 | 5066 ft | 223 kts | 192° |
| 2026-05-04 02:27 | 10.65981 | -67.27460 | 4963 ft | 218 kts | 188° |
| 2026-05-04 02:27 | 10.64509 | -67.27671 | 4862 ft | 213 kts | 182° |
| 2026-05-04 02:27 | 10.63075 | -67.27380 | 4801 ft | 208 kts | 149° |
| 2026-05-04 02:28 | 10.62114 | -67.26376 | 4712 ft | 195 kts | 121° |
| 2026-05-04 02:28 | 10.61491 | -67.25222 | 4502 ft | 179 kts | 117° |
| 2026-05-04 02:28 | 10.60928 | -67.24107 | 4179 ft | 176 kts | 117° |
| 2026-05-04 02:28 | 10.60379 | -67.23028 | 4001 ft | 166 kts | 117° |
| 2026-05-04 02:29 | 10.59857 | -67.22015 | 3995 ft | 159 kts | 118° |
| 2026-05-04 02:29 | 10.59626 | -67.20941 | 3956 ft | 156 kts | 88° |
| 2026-05-04 02:29 | 10.59718 | -67.19855 | 3778 ft | 153 kts | 84° |
| 2026-05-04 02:29 | 10.59804 | -67.18777 | 3593 ft | 153 kts | 86° |
| 2026-05-04 02:30 | 10.59850 | -67.17713 | 3390 ft | 148 kts | 88° |
| 2026-05-04 02:30 | 10.59879 | -67.16679 | 3192 ft | 144 kts | 88° |
| 2026-05-04 02:30 | 10.59912 | -67.15663 | 2998 ft | 145 kts | 88° |
| 2026-05-04 02:30 | 10.59946 | -67.14647 | 2778 ft | 143 kts | 89° |
| 2026-05-04 02:31 | 10.59978 | -67.13646 | 2584 ft | 139 kts | 88° |
| 2026-05-04 02:31 | 10.60009 | -67.12682 | 2389 ft | 135 kts | 88° |
| 2026-05-04 02:31 | 10.60039 | -67.11733 | 2212 ft | 134 kts | 88° |
| 2026-05-04 02:31 | 10.60070 | -67.10793 | 2031 ft | 133 kts | 89° |
| 2026-05-04 02:32 | 10.60099 | -67.09864 | 1858 ft | 133 kts | 88° |
| 2026-05-04 02:32 | 10.60129 | -67.08933 | 1686 ft | 131 kts | 88° |
| 2026-05-04 02:32 | 10.60159 | -67.08011 | 1512 ft | 129 kts | 88° |
| 2026-05-04 02:32 | 10.60188 | -67.07100 | 1339 ft | 128 kts | 88° |
| 2026-05-04 02:33 | 10.60217 | -67.06195 | 1176 ft | 128 kts | 88° |
| 2026-05-04 02:33 | 10.60244 | -67.05289 | 997 ft | 128 kts | 89° |
| 2026-05-04 02:33 | 10.60271 | -67.04387 | 845 ft | 128 kts | 89° |
| 2026-05-04 02:33 | 10.60299 | -67.03487 | 658 ft | 127 kts | 88° |
| 2026-05-04 02:34 | 10.60331 | -67.02602 | 497 ft | 125 kts | 89° |
| 2026-05-04 02:34 | 10.60365 | -67.01725 | 331 ft | 124 kts | 86° |
| 2026-05-04 02:34 | 10.60393 | -67.00860 | 239 ft | 121 kts | 89° |
| 2026-05-04 02:34 | 10.60415 | -67.00043 | 212 ft | 107 kts | 88° |
| 2026-05-04 02:35 | 10.60437 | -66.99391 | 203 ft | 72 kts | 87° |
| 2026-05-04 02:35 | 10.60437 | -66.99168 | 203 ft | 16 kts | 108° |
| 2026-05-04 02:35 | 10.60328 | -66.99126 | 179 ft | 21 kts | 196° |
| 2026-05-04 02:35 | 10.60272 | -66.99264 | 180 ft | 28 kts | 266° |
| 2026-05-04 02:36 | 10.60264 | -66.99465 | 196 ft | 28 kts | 270° |
| 2026-05-04 02:36 | 10.60241 | -66.99646 | 199 ft | 21 kts | 232° |
| 2026-05-04 02:36 | 10.60144 | -66.99715 | 203 ft | 16 kts | 254° |
| 2026-05-04 02:36 | 10.60132 | -66.99830 | 201 ft | 17 kts | 268° |
| 2026-05-04 02:37 | 10.60122 | -66.99954 | 206 ft | 19 kts | 265° |
| 2026-05-04 02:37 | 10.60115 | -67.00091 | 206 ft | 20 kts | 268° |
| 2026-05-04 02:37 | 10.60111 | -67.00231 | 211 ft | 20 kts | 264° |
| 2026-05-04 02:37 | 10.60028 | -67.00342 | 216 ft | 21 kts | 237° |
| 2026-05-04 02:38 | 10.60002 | -67.00488 | 207 ft | 22 kts | 272° |
| 2026-05-04 02:38 | 10.59963 | -67.00587 | 216 ft | 9 kts | 207° |
| 2026-05-04 02:38 | 10.59889 | -67.00590 | 212 ft | 13 kts | 179° |
| 2026-05-04 02:38 | 10.59857 | -67.00589 | 207 ft | 0 kts | 177° |